createdAt,value
2022-08-13T00:00:45.035Z,74.33
2022-08-13T00:05:47.459Z,74.87
2022-08-13T00:10:48.998Z,75.02
2022-08-13T00:15:55.430Z,74.13
2022-08-13T00:20:59.673Z,73.75
2022-08-13T00:26:02.902Z,74.32
2022-08-13T00:31:06.740Z,74.56
2022-08-13T00:36:10.596Z,74.61
2022-08-13T00:41:59.194Z,74.54
2022-08-13T00:47:17.773Z,74.25
2022-08-13T00:52:20.889Z,73.76
2022-08-13T00:57:22.490Z,73.61
2022-08-13T01:02:32.938Z,73.63
2022-08-13T01:07:47.808Z,73.15
2022-08-13T01:13:00.101Z,72.27
2022-08-13T01:18:03.659Z,72.29
2022-08-13T01:23:09.021Z,72.65
2022-08-13T01:28:14.047Z,72.50
2022-08-13T01:33:18.257Z,72.66
2022-08-13T01:38:23.327Z,72.68
2022-08-13T01:48:58.888Z,69.57
2022-08-13T01:54:11.412Z,68.20
2022-08-13T01:59:24.507Z,67.35
2022-08-13T02:04:26.733Z,66.14
2022-08-13T02:10:00.334Z,65.45
2022-08-13T02:14:51.061Z,65.56
2022-08-13T02:19:54.326Z,65.38
2022-08-13T02:24:57.961Z,65.24
2022-08-13T02:30:00.558Z,65.73
2022-08-13T02:35:03.146Z,66.50
2022-08-13T02:40:28.425Z,67.36
2022-08-13T02:45:31.367Z,68.88
2022-08-13T02:50:43.755Z,68.39
2022-08-13T02:55:51.440Z,68.65
2022-08-13T03:00:56.166Z,69.83
2022-08-13T03:06:00.625Z,70.35
2022-08-13T03:11:03.078Z,70.40
2022-08-13T03:16:05.989Z,70.26
2022-08-13T03:21:14.213Z,71.03
2022-08-13T03:26:16.548Z,72.08
2022-08-13T03:31:19.658Z,73.02
2022-08-13T03:36:22.241Z,74.02
2022-08-13T03:41:26.602Z,74.89
2022-08-13T03:46:28.990Z,75.57
2022-08-13T03:51:35.535Z,75.82
2022-08-13T03:56:37.790Z,75.48
2022-08-13T04:01:49.700Z,74.98
2022-08-13T04:06:51.405Z,73.28
2022-08-13T04:12:05.476Z,71.98
2022-08-13T04:17:11.847Z,71.22
2022-08-13T04:22:15.943Z,71.14
2022-08-13T04:27:18.246Z,70.58
2022-08-13T04:32:26.419Z,69.62
2022-08-13T04:37:34.813Z,71.08
2022-08-13T04:42:49.907Z,73.19
2022-08-13T04:47:52.354Z,74.67
2022-08-13T04:52:53.995Z,75.51
2022-08-13T04:58:00.547Z,75.64
2022-08-13T05:03:18.263Z,76.03
2022-08-13T05:08:20.410Z,76.51
2022-08-13T05:13:42.591Z,76.77
2022-08-13T05:18:54.708Z,76.39
2022-08-13T05:26:09.933Z,76.52
2022-08-13T05:34:19.436Z,76.75
2022-08-13T05:39:21.137Z,76.35
2022-08-13T05:44:23.755Z,76.26
2022-08-13T05:49:54.967Z,76.18
2022-08-13T05:56:12.790Z,76.30
2022-08-13T06:00:29.709Z,75.72
2022-08-13T06:05:46.617Z,74.89
2022-08-13T06:10:49.334Z,73.84
2022-08-13T06:16:04.514Z,72.90
2022-08-13T06:21:33.445Z,72.74
2022-08-13T06:26:39.746Z,72.38
2022-08-13T06:31:47.003Z,72.12
2022-08-13T06:36:49.305Z,70.62
2022-08-13T06:42:02.226Z,70.00
2022-08-13T06:47:05.751Z,69.67
2022-08-13T06:52:07.640Z,68.75
2022-08-13T06:57:20.885Z,67.48
2022-08-13T07:02:25.337Z,62.34
2022-08-13T07:07:28.517Z,63.15
2022-08-13T07:12:34.761Z,64.37
2022-08-13T07:17:36.377Z,65.24
2022-08-13T07:24:38.394Z,64.36
2022-08-13T07:28:06.374Z,64.71
2022-08-13T07:33:11.563Z,65.13
2022-08-13T07:38:14.503Z,64.99
2022-08-13T07:43:23.295Z,64.88
2022-08-13T07:48:32.684Z,65.41
2022-08-13T07:53:55.582Z,64.21
2022-08-13T07:59:01.580Z,64.59
2022-08-13T08:04:07.073Z,64.00
2022-08-13T08:09:09.412Z,62.23
2022-08-13T08:14:13.738Z,62.53
2022-08-13T08:20:07.173Z,60.88
2022-08-13T08:24:39.552Z,60.09
2022-08-13T08:29:55.900Z,59.09
2022-08-13T08:35:09.448Z,57.67
2022-08-13T08:40:56.744Z,57.37
2022-08-13T08:46:02.319Z,56.21
2022-08-13T08:51:19.880Z,54.48
2022-08-13T08:56:23.304Z,53.67
2022-08-13T09:01:27.756Z,53.00
2022-08-13T09:06:53.200Z,50.84
2022-08-13T09:11:55.939Z,51.00
2022-08-13T09:16:59.977Z,49.78
2022-08-13T09:22:01.671Z,48.11
2022-08-13T09:27:03.884Z,48.37
2022-08-13T09:32:08.695Z,46.50
2022-08-13T09:37:11.823Z,45.93
2022-08-13T09:42:22.688Z,45.22
2022-08-13T09:48:35.471Z,44.61
2022-08-13T09:52:50.160Z,44.22
2022-08-13T09:57:54.107Z,44.07
2022-08-13T10:03:00.576Z,42.98
2022-08-13T10:08:16.475Z,42.49
2022-08-13T10:13:18.679Z,41.83
2022-08-13T10:18:22.417Z,40.54
2022-08-13T10:23:30.084Z,39.82
2022-08-13T10:28:37.823Z,39.83
2022-08-13T10:33:39.668Z,39.68
2022-08-13T10:38:53.563Z,39.73
2022-08-13T10:44:00.844Z,38.28
2022-08-13T10:49:02.410Z,38.42
2022-08-13T10:54:08.476Z,37.71
2022-08-13T10:59:23.455Z,37.55
2022-08-13T11:04:30.084Z,36.69
2022-08-13T11:09:36.646Z,35.81
2022-08-13T11:14:42.548Z,35.32
2022-08-13T11:19:49.193Z,35.38
2022-08-13T11:24:58.048Z,35.42
2022-08-13T11:29:59.378Z,35.73
2022-08-13T11:35:00.920Z,35.02
2022-08-13T11:40:22.095Z,33.76
2022-08-13T11:45:26.694Z,33.99
2022-08-13T11:50:41.648Z,33.84
2022-08-13T11:55:56.837Z,33.94
2022-08-13T12:01:00.711Z,34.78
2022-08-13T12:06:11.977Z,33.75
2022-08-13T12:11:18.565Z,34.93
2022-08-13T12:16:20.325Z,34.65
2022-08-13T12:21:22.187Z,34.41
2022-08-13T12:26:24.743Z,34.92
2022-08-13T12:31:26.289Z,34.43
2022-08-13T12:36:35.237Z,34.51
2022-08-13T12:41:38.280Z,34.37
2022-08-13T12:46:46.021Z,34.59
2022-08-13T12:51:54.371Z,35.12
2022-08-13T12:56:58.297Z,33.89
2022-08-13T13:02:00.855Z,32.94
2022-08-13T13:07:07.209Z,32.49
2022-08-13T13:12:09.388Z,31.71
2022-08-13T13:18:09.200Z,31.74
2022-08-13T13:22:36.254Z,31.98
2022-08-13T13:27:45.876Z,31.51
2022-08-13T13:32:48.800Z,31.62
2022-08-13T13:38:06.422Z,30.86
2022-08-13T13:43:20.865Z,30.10
2022-08-13T13:48:29.429Z,30.10
2022-08-13T13:53:37.876Z,30.32
2022-08-13T13:58:59.665Z,31.38
2022-08-13T14:04:01.989Z,32.08
2022-08-13T14:09:06.077Z,31.25
2022-08-13T14:14:08.147Z,30.36
2022-08-13T14:19:26.955Z,29.54
2022-08-13T14:24:34.751Z,29.12
2022-08-13T14:29:36.323Z,28.95
2022-08-13T14:34:42.781Z,28.29
2022-08-13T14:39:56.506Z,28.86
2022-08-13T14:45:19.838Z,29.49
2022-08-13T14:50:22.417Z,28.78
2022-08-13T14:55:26.485Z,28.10
2022-08-13T15:00:34.200Z,28.65
2022-08-13T15:05:41.359Z,29.37
2022-08-13T15:11:05.806Z,28.62
2022-08-13T15:16:15.105Z,29.57
2022-08-13T15:21:17.064Z,29.46
2022-08-13T15:26:40.393Z,29.17
2022-08-13T15:31:41.916Z,29.35
2022-08-13T15:37:00.188Z,29.38
2022-08-13T15:42:07.382Z,28.45
2022-08-13T15:47:13.793Z,29.17
2022-08-13T15:52:21.018Z,28.83
2022-08-13T15:57:24.389Z,28.99
2022-08-13T16:02:48.613Z,28.93
2022-08-13T16:07:52.931Z,30.12
2022-08-13T16:13:07.280Z,29.96
2022-08-13T16:18:16.983Z,31.76
2022-08-13T16:23:20.326Z,30.00
2022-08-13T16:28:23.208Z,30.93
2022-08-13T16:33:24.918Z,30.81
2022-08-13T16:38:32.496Z,29.56
2022-08-13T16:44:00.772Z,29.57
2022-08-13T16:49:13.235Z,31.14
2022-08-13T16:54:35.537Z,32.02
2022-08-13T16:59:46.641Z,32.69
2022-08-13T17:05:17.127Z,33.77
2022-08-13T17:10:22.034Z,34.07
2022-08-13T17:15:23.964Z,34.10
2022-08-13T17:20:28.621Z,33.66
2022-08-13T17:25:33.653Z,34.50
2022-08-13T17:30:35.483Z,34.46
2022-08-13T17:35:41.544Z,34.38
2022-08-13T17:40:49.366Z,35.16
2022-08-13T17:45:57.131Z,35.51
2022-08-13T17:51:08.390Z,36.75
2022-08-13T17:56:15.888Z,37.18
2022-08-13T18:01:23.948Z,37.89
2022-08-13T18:06:33.738Z,38.83
2022-08-13T18:11:42.360Z,39.78
2022-08-13T18:17:06.215Z,40.75
2022-08-13T18:22:07.527Z,41.62
2022-08-13T18:27:23.115Z,42.03
2022-08-13T18:32:31.905Z,42.10
2022-08-13T18:37:38.477Z,43.71
2022-08-13T18:42:49.267Z,44.48
2022-08-13T18:47:54.718Z,45.64
2022-08-13T18:53:31.511Z,46.37
2022-08-13T18:58:20.481Z,47.08
2022-08-13T19:03:24.610Z,47.41
2022-08-13T19:08:33.362Z,48.00
2022-08-13T19:13:35.898Z,48.53
2022-08-13T19:18:40.946Z,49.86
2022-08-13T19:23:42.601Z,50.72
2022-08-13T19:28:57.923Z,51.36
2022-08-13T19:34:00.994Z,52.87
2022-08-13T19:39:30.969Z,53.03
2022-08-13T19:44:30.143Z,54.24
2022-08-13T19:49:35.824Z,54.88
2022-08-13T19:55:00.174Z,55.85
2022-08-13T20:00:15.726Z,56.61
2022-08-13T20:05:23.046Z,57.18
2022-08-13T20:10:27.445Z,57.21
2022-08-13T20:15:30.820Z,57.08
2022-08-13T20:20:35.895Z,57.71
2022-08-13T20:25:49.303Z,58.60
2022-08-13T20:30:58.990Z,60.36
2022-08-13T20:36:03.783Z,61.93
2022-08-13T20:41:09.038Z,62.54
2022-08-13T20:46:11.829Z,63.16
2022-08-13T20:51:13.357Z,63.43
2022-08-13T20:56:41.999Z,63.07
2022-08-13T21:01:41.142Z,63.34
2022-08-13T21:06:50.009Z,63.80
2022-08-13T21:11:58.398Z,63.79
2022-08-13T21:17:00.699Z,63.90
2022-08-13T21:22:04.812Z,64.35
2022-08-13T21:27:24.939Z,64.64
2022-08-13T21:32:31.258Z,64.82
2022-08-13T21:37:34.673Z,65.46
2022-08-13T21:42:39.797Z,65.86
2022-08-13T21:47:43.370Z,66.10
2022-08-13T21:52:53.191Z,65.86
2022-08-13T21:57:58.417Z,66.60
2022-08-13T22:03:12.341Z,66.70
2022-08-13T22:08:15.842Z,65.23
2022-08-13T22:13:20.505Z,63.76
2022-08-13T22:18:28.372Z,62.78
2022-08-13T22:23:31.611Z,62.33
2022-08-13T22:28:52.418Z,62.76
2022-08-13T22:34:03.611Z,63.45
2022-08-13T22:39:10.064Z,64.20
2022-08-13T22:44:13.257Z,64.47
2022-08-13T22:49:15.048Z,65.17
2022-08-13T22:54:16.767Z,66.39
2022-08-13T22:59:18.805Z,66.60
2022-08-13T23:04:26.048Z,66.65
2022-08-13T23:09:29.939Z,67.36
2022-08-13T23:14:31.885Z,67.84
2022-08-13T23:19:33.478Z,68.04
2022-08-13T23:24:34.996Z,68.15
2022-08-13T23:29:37.355Z,68.47
2022-08-13T23:34:39.498Z,68.54
2022-08-13T23:39:41.242Z,69.05
2022-08-13T23:44:42.860Z,68.67
2022-08-13T23:49:49.362Z,68.26
2022-08-13T23:54:52.560Z,66.97
2022-08-13T23:59:54.644Z,65.55
